createdAt,value
2017-08-21T00:00:34.904Z,0
2017-08-21T00:01:44.436Z,0
2017-08-21T00:02:53.651Z,0
2017-08-21T00:04:03.829Z,0
2017-08-21T00:05:13.459Z,0
2017-08-21T00:06:22.671Z,0
2017-08-21T00:07:32.521Z,0
2017-08-21T00:08:41.721Z,0
2017-08-21T00:09:51.250Z,0
2017-08-21T00:11:00.933Z,0
2017-08-21T00:12:10.137Z,0
2017-08-21T00:13:20.010Z,0
2017-08-21T00:14:29.542Z,0
2017-08-21T00:15:38.421Z,0
2017-08-21T00:16:48.001Z,0
2017-08-21T00:17:57.210Z,0
2017-08-21T00:19:07.062Z,0
2017-08-21T00:20:17.243Z,0
2017-08-21T00:21:26.482Z,0
2017-08-21T00:22:36.010Z,0
2017-08-21T00:23:45.540Z,0
2017-08-21T00:24:55.394Z,0
2017-08-21T00:26:04.923Z,0
2017-08-21T00:27:14.451Z,0
2017-08-21T00:28:24.088Z,0
2017-08-21T00:29:33.940Z,0
2017-08-21T00:30:43.153Z,0
2017-08-21T00:31:52.678Z,0
2017-08-21T00:33:01.888Z,0
2017-08-21T00:34:12.050Z,0
2017-08-21T00:35:21.906Z,0
2017-08-21T00:36:31.133Z,0
2017-08-21T00:37:40.015Z,0
2017-08-21T00:38:49.222Z,0
2017-08-21T00:39:59.079Z,0
2017-08-21T00:41:09.269Z,0
2017-08-21T00:42:19.123Z,0
2017-08-21T00:43:28.975Z,0
2017-08-21T00:44:38.501Z,0
2017-08-21T00:45:47.486Z,0
2017-08-21T00:46:57.660Z,0
2017-08-21T00:48:06.860Z,0
2017-08-21T00:49:16.074Z,0
2017-08-21T00:50:25.623Z,0
2017-08-21T00:51:34.833Z,0
2017-08-21T00:52:44.364Z,0
2017-08-21T00:53:53.248Z,0
2017-08-21T00:55:02.775Z,0
2017-08-21T00:56:12.308Z,0
2017-08-21T00:57:21.651Z,0
2017-08-21T00:58:30.855Z,0
2017-08-21T00:59:39.736Z,0
2017-08-21T01:00:49.587Z,0
2017-08-21T01:01:58.796Z,0
2017-08-21T01:03:08.153Z,0
2017-08-21T01:04:17.682Z,0
2017-08-21T01:05:26.564Z,0
2017-08-21T01:06:36.091Z,0
2017-08-21T01:07:45.626Z,0
2017-08-21T01:08:54.934Z,0
2017-08-21T01:10:04.802Z,0
2017-08-21T01:11:14.660Z,0
2017-08-21T01:12:24.516Z,0
2017-08-21T01:13:34.045Z,0
2017-08-21T01:14:42.974Z,0
2017-08-21T01:15:52.185Z,0
2017-08-21T01:17:01.388Z,0
2017-08-21T01:18:10.915Z,0
2017-08-21T01:19:20.826Z,0
2017-08-21T01:20:29.818Z,0
2017-08-21T01:21:39.345Z,0
2017-08-21T01:22:48.550Z,0
2017-08-21T01:23:57.752Z,0
2017-08-21T01:25:06.957Z,0
2017-08-21T01:26:16.633Z,0
2017-08-21T01:27:25.859Z,0
2017-08-21T01:28:35.399Z,0
2017-08-21T01:29:44.932Z,0
2017-08-21T01:30:54.139Z,0
2017-08-21T01:32:03.667Z,0
2017-08-21T01:33:13.209Z,0
2017-08-21T01:34:22.437Z,0
2017-08-21T01:35:31.644Z,0
2017-08-21T01:36:40.527Z,0
2017-08-21T01:37:50.204Z,0
2017-08-21T01:38:59.413Z,0
2017-08-21T01:40:08.946Z,0
2017-08-21T01:41:18.476Z,0
2017-08-21T01:42:27.678Z,0
2017-08-21T01:43:37.041Z,0
2017-08-21T01:44:46.574Z,0
2017-08-21T01:45:56.101Z,0
2017-08-21T01:47:05.628Z,0
2017-08-21T01:48:15.488Z,0
2017-08-21T01:49:24.524Z,0
2017-08-21T01:50:34.374Z,0
2017-08-21T01:51:43.580Z,0
2017-08-21T01:52:53.112Z,0
2017-08-21T01:54:02.316Z,0
2017-08-21T01:55:12.464Z,0
2017-08-21T01:56:21.349Z,0
2017-08-21T01:57:30.889Z,0
2017-08-21T01:58:40.090Z,0
2017-08-21T01:59:49.296Z,0
2017-08-21T02:00:58.550Z,0
2017-08-21T02:02:08.078Z,0
2017-08-21T02:03:17.286Z,0
2017-08-21T02:04:26.167Z,0
2017-08-21T02:05:35.374Z,0
2017-08-21T02:06:44.407Z,0
2017-08-21T02:07:53.932Z,0
2017-08-21T02:09:03.781Z,0
2017-08-21T02:10:13.638Z,0
2017-08-21T02:11:23.163Z,0
2017-08-21T02:12:32.419Z,0
2017-08-21T02:13:41.656Z,0
2017-08-21T02:14:51.511Z,0
2017-08-21T02:16:00.712Z,0
2017-08-21T02:17:09.595Z,0
2017-08-21T02:18:18.910Z,0
2017-08-21T02:19:28.441Z,0
2017-08-21T02:20:37.971Z,0
2017-08-21T02:21:46.856Z,0
2017-08-21T02:22:56.386Z,0
2017-08-21T02:24:05.967Z,0
2017-08-21T02:25:15.499Z,0
2017-08-21T02:26:24.710Z,0
2017-08-21T02:27:33.925Z,0
2017-08-21T02:28:43.130Z,0
2017-08-21T02:29:52.670Z,0
2017-08-21T02:31:02.530Z,0
2017-08-21T02:32:12.384Z,0
2017-08-21T02:33:21.590Z,0
2017-08-21T02:34:30.807Z,0
2017-08-21T02:35:40.485Z,0
2017-08-21T02:36:49.689Z,0
2017-08-21T02:37:58.906Z,0
2017-08-21T02:39:08.436Z,0
2017-08-21T02:40:17.993Z,0
2017-08-21T02:41:28.799Z,0
2017-08-21T02:42:37.686Z,0
2017-08-21T02:43:46.892Z,0
2017-08-21T02:44:55.780Z,0
2017-08-21T02:46:05.323Z,0
2017-08-21T02:47:15.005Z,0
2017-08-21T02:48:24.234Z,0
2017-08-21T02:49:33.764Z,0
2017-08-21T02:50:42.968Z,0
2017-08-21T02:51:52.505Z,0
2017-08-21T02:53:02.035Z,0
2017-08-21T02:54:11.568Z,0
2017-08-21T02:55:21.098Z,0
2017-08-21T02:56:29.983Z,0
2017-08-21T02:57:39.520Z,0
2017-08-21T02:58:48.779Z,0
2017-08-21T02:59:58.304Z,0
2017-08-21T03:01:07.512Z,0
2017-08-21T03:02:17.369Z,0
2017-08-21T03:03:26.248Z,0
2017-08-21T03:04:35.830Z,0
2017-08-21T03:05:45.356Z,0
2017-08-21T03:06:54.882Z,0
2017-08-21T03:08:03.765Z,0
2017-08-21T03:09:13.299Z,0
2017-08-21T03:10:22.662Z,0
2017-08-21T03:11:32.510Z,0
2017-08-21T03:12:41.393Z,0
2017-08-21T03:13:50.916Z,0
2017-08-21T03:15:00.117Z,0
2017-08-21T03:16:09.800Z,0
2017-08-21T03:17:19.015Z,0
2017-08-21T03:18:28.220Z,0
2017-08-21T03:19:37.428Z,0
2017-08-21T03:20:46.631Z,0
2017-08-21T03:21:56.311Z,0
2017-08-21T03:23:05.517Z,0
2017-08-21T03:24:15.053Z,0
2017-08-21T03:25:23.938Z,0
2017-08-21T03:26:32.827Z,0
2017-08-21T03:27:42.030Z,0
2017-08-21T03:28:51.883Z,0
2017-08-21T03:30:01.085Z,0
2017-08-21T03:31:10.622Z,0
2017-08-21T03:32:19.831Z,0
2017-08-21T03:33:29.516Z,0
2017-08-21T03:34:39.692Z,0
2017-08-21T03:35:48.893Z,0
2017-08-21T03:36:58.096Z,0
2017-08-21T03:38:08.265Z,0
2017-08-21T03:39:17.615Z,0
2017-08-21T03:40:26.842Z,0
2017-08-21T03:41:36.047Z,0
2017-08-21T03:42:45.252Z,0
2017-08-21T03:43:55.102Z,0
2017-08-21T03:45:05.106Z,0
2017-08-21T03:46:14.632Z,0
2017-08-21T03:47:23.836Z,0
2017-08-21T03:48:33.369Z,0
2017-08-21T03:49:42.902Z,0
2017-08-21T03:50:51.885Z,0
2017-08-21T03:52:00.762Z,0
2017-08-21T03:53:10.288Z,0
2017-08-21T03:54:19.495Z,0
2017-08-21T03:55:28.378Z,0
2017-08-21T03:56:37.913Z,0
2017-08-21T03:57:47.115Z,0
2017-08-21T03:58:56.001Z,0
2017-08-21T04:00:05.206Z,0
2017-08-21T04:01:14.431Z,0
2017-08-21T04:02:23.632Z,0
2017-08-21T04:03:33.162Z,0
2017-08-21T04:04:43.014Z,0
2017-08-21T04:05:52.553Z,0
2017-08-21T04:07:01.777Z,0
2017-08-21T04:08:11.464Z,0
2017-08-21T04:09:21.318Z,5
2017-08-21T04:10:30.523Z,5
2017-08-21T04:11:40.375Z,5
2017-08-21T04:12:49.902Z,5
2017-08-21T04:13:59.756Z,5
2017-08-21T04:15:09.610Z,5
2017-08-21T04:16:18.814Z,5
2017-08-21T04:17:28.016Z,10
2017-08-21T04:18:37.218Z,10
2017-08-21T04:19:47.265Z,10
2017-08-21T04:20:56.787Z,10
2017-08-21T04:22:06.312Z,10
2017-08-21T04:23:15.840Z,15
2017-08-21T04:24:25.044Z,15
2017-08-21T04:25:34.631Z,15
2017-08-21T04:26:43.852Z,15
2017-08-21T04:27:53.055Z,15
2017-08-21T04:29:02.926Z,20
2017-08-21T04:30:12.136Z,20
2017-08-21T04:31:21.911Z,20
2017-08-21T04:32:31.110Z,20
2017-08-21T04:33:40.309Z,25
2017-08-21T04:34:49.842Z,25
2017-08-21T04:35:58.725Z,25
2017-08-21T04:37:08.254Z,30
2017-08-21T04:38:17.462Z,30
2017-08-21T04:39:26.664Z,30
2017-08-21T04:40:36.193Z,35
2017-08-21T04:41:45.416Z,35
2017-08-21T04:42:54.668Z,35
2017-08-21T04:44:04.192Z,40
2017-08-21T04:45:13.396Z,40
2017-08-21T04:46:22.596Z,40
2017-08-21T04:47:32.122Z,40
2017-08-21T04:48:42.074Z,40
2017-08-21T04:49:50.955Z,45
2017-08-21T04:51:00.161Z,45
2017-08-21T04:52:09.360Z,45
2017-08-21T04:53:18.887Z,50
2017-08-21T04:54:28.094Z,50
2017-08-21T04:55:37.304Z,55
2017-08-21T04:56:46.508Z,55
2017-08-21T04:57:56.031Z,55
2017-08-21T04:59:05.228Z,55
2017-08-21T05:00:14.588Z,55
2017-08-21T05:01:24.443Z,60
2017-08-21T05:02:33.970Z,60
2017-08-21T05:03:43.171Z,65
2017-08-21T05:04:52.704Z,65
2017-08-21T05:06:01.917Z,70
2017-08-21T05:07:11.767Z,70
2017-08-21T05:08:21.296Z,75
2017-08-21T05:09:30.820Z,75
2017-08-21T05:10:40.021Z,75
2017-08-21T05:11:49.698Z,80
2017-08-21T05:12:58.912Z,80
2017-08-21T05:14:08.444Z,80
2017-08-21T05:15:18.296Z,85
2017-08-21T05:16:27.501Z,85
2017-08-21T05:17:37.199Z,85
2017-08-21T05:18:46.408Z,90
2017-08-21T05:19:55.938Z,90
2017-08-21T05:21:05.481Z,95
2017-08-21T05:22:14.690Z,95
2017-08-21T05:23:24.267Z,95
2017-08-21T05:24:33.479Z,95
2017-08-21T05:25:42.363Z,100
2017-08-21T05:26:51.249Z,100
2017-08-21T05:28:00.139Z,100
2017-08-21T05:29:10.325Z,100
2017-08-21T05:30:19.857Z,105
2017-08-21T05:31:29.061Z,105
2017-08-21T05:32:38.591Z,105
2017-08-21T05:33:48.446Z,110
2017-08-21T05:34:57.653Z,110
2017-08-21T05:36:07.187Z,110
2017-08-21T05:37:16.386Z,110
2017-08-21T05:38:26.239Z,110
2017-08-21T05:39:35.873Z,110
2017-08-21T05:40:45.114Z,110
2017-08-21T05:41:54.962Z,115
2017-08-21T05:43:04.512Z,115
2017-08-21T05:44:14.051Z,115
2017-08-21T05:45:23.902Z,115
2017-08-21T05:46:32.808Z,115
2017-08-21T05:47:41.697Z,120
2017-08-21T05:48:51.226Z,120
2017-08-21T05:50:00.754Z,120
2017-08-21T05:51:09.959Z,120
2017-08-21T05:52:19.489Z,120
2017-08-21T05:53:29.019Z,125
2017-08-21T05:54:38.698Z,125
2017-08-21T05:55:47.914Z,125
2017-08-21T05:56:56.810Z,130
2017-08-21T05:58:06.343Z,125
2017-08-21T05:59:16.194Z,125
2017-08-21T06:00:25.773Z,125
2017-08-21T06:01:34.980Z,125
2017-08-21T06:02:44.508Z,125
2017-08-21T06:03:54.041Z,125
2017-08-21T06:05:02.925Z,125
2017-08-21T06:06:12.552Z,130
2017-08-21T06:07:22.149Z,130
2017-08-21T06:08:31.367Z,130
2017-08-21T06:09:40.902Z,130
2017-08-21T06:10:50.434Z,130
2017-08-21T06:11:59.367Z,130
2017-08-21T06:13:09.541Z,130
2017-08-21T06:14:19.071Z,130
2017-08-21T06:15:29.254Z,130
2017-08-21T06:16:38.458Z,135
2017-08-21T06:17:47.813Z,135
2017-08-21T06:18:57.014Z,135
2017-08-21T06:20:06.868Z,135
2017-08-21T06:21:16.397Z,135
2017-08-21T06:22:26.251Z,140
2017-08-21T06:23:35.507Z,140
2017-08-21T06:24:45.037Z,140
2017-08-21T06:25:54.889Z,145
2017-08-21T06:27:03.777Z,145
2017-08-21T06:28:13.342Z,145
2017-08-21T06:29:23.350Z,145
2017-08-21T06:30:32.878Z,145
2017-08-21T06:31:42.083Z,145
2017-08-21T06:32:51.944Z,145
2017-08-21T06:34:01.479Z,150
2017-08-21T06:35:11.582Z,150
2017-08-21T06:36:20.783Z,150
2017-08-21T06:37:30.314Z,150
2017-08-21T06:38:40.164Z,155
2017-08-21T06:39:49.055Z,155
2017-08-21T06:40:58.572Z,155
2017-08-21T06:42:07.791Z,155
2017-08-21T06:43:17.321Z,155
2017-08-21T06:44:26.547Z,155
2017-08-21T06:45:35.432Z,155
2017-08-21T06:46:44.787Z,160
2017-08-21T06:47:54.042Z,160
2017-08-21T06:49:03.572Z,160
2017-08-21T06:50:12.778Z,160
2017-08-21T06:51:22.302Z,165
2017-08-21T06:52:31.282Z,165
2017-08-21T06:53:40.810Z,160
2017-08-21T06:54:50.340Z,165
2017-08-21T06:56:00.195Z,170
2017-08-21T06:57:10.079Z,170
2017-08-21T06:58:19.284Z,175
2017-08-21T06:59:28.489Z,180
2017-08-21T07:00:37.694Z,190
2017-08-21T07:01:47.226Z,200
2017-08-21T07:02:57.079Z,205
2017-08-21T07:04:06.759Z,205
2017-08-21T07:05:15.967Z,210
2017-08-21T07:06:25.176Z,210
2017-08-21T07:07:34.383Z,200
2017-08-21T07:08:43.614Z,200
2017-08-21T07:09:53.196Z,200
2017-08-21T07:11:03.062Z,205
2017-08-21T07:12:12.598Z,210
2017-08-21T07:13:21.484Z,215
2017-08-21T07:14:31.012Z,210
2017-08-21T07:15:41.184Z,205
2017-08-21T07:16:51.041Z,195
2017-08-21T07:18:00.598Z,200
2017-08-21T07:19:10.131Z,210
2017-08-21T07:20:19.985Z,225
2017-08-21T07:21:29.820Z,235
2017-08-21T07:22:39.674Z,240
2017-08-21T07:23:48.882Z,225
2017-08-21T07:24:57.776Z,215
2017-08-21T07:26:06.990Z,210
2017-08-21T07:27:16.044Z,210
2017-08-21T07:28:25.252Z,210
2017-08-21T07:29:34.785Z,210
2017-08-21T07:30:44.637Z,215
2017-08-21T07:31:54.169Z,220
2017-08-21T07:33:03.698Z,225
2017-08-21T07:34:13.231Z,240
2017-08-21T07:35:22.503Z,270
2017-08-21T07:36:31.402Z,310
2017-08-21T07:37:40.285Z,340
2017-08-21T07:38:49.166Z,355
2017-08-21T07:39:58.697Z,385
2017-08-21T07:41:08.552Z,385
2017-08-21T07:42:17.761Z,380
2017-08-21T07:43:27.012Z,370
2017-08-21T07:44:36.624Z,360
2017-08-21T07:45:46.158Z,365
2017-08-21T07:46:56.340Z,390
2017-08-21T07:48:05.553Z,400
2017-08-21T07:49:15.403Z,390
2017-08-21T07:50:25.304Z,375
2017-08-21T07:51:34.841Z,360
2017-08-21T07:52:44.370Z,360
2017-08-21T07:53:53.905Z,360
2017-08-21T07:55:03.110Z,360
2017-08-21T07:56:12.800Z,370
2017-08-21T07:57:22.006Z,390
2017-08-21T07:58:31.541Z,370
2017-08-21T07:59:41.429Z,380
2017-08-21T08:00:50.311Z,395
2017-08-21T08:01:59.519Z,395
2017-08-21T08:03:09.048Z,395
2017-08-21T08:04:18.255Z,400
2017-08-21T08:05:27.466Z,400
2017-08-21T08:06:37.019Z,400
2017-08-21T08:07:46.285Z,415
2017-08-21T08:08:55.818Z,430
2017-08-21T08:10:05.348Z,430
2017-08-21T08:11:14.879Z,425
2017-08-21T08:12:24.089Z,425
2017-08-21T08:13:33.355Z,425
2017-08-21T08:14:43.205Z,420
2017-08-21T08:15:52.412Z,415
2017-08-21T08:17:01.616Z,420
2017-08-21T08:18:10.824Z,430
2017-08-21T08:19:20.187Z,435
2017-08-21T08:20:29.727Z,440
2017-08-21T08:21:38.963Z,450
2017-08-21T08:22:48.177Z,460
2017-08-21T08:23:57.392Z,440
2017-08-21T08:25:07.291Z,425
2017-08-21T08:26:16.179Z,425
2017-08-21T08:27:26.031Z,440
2017-08-21T08:28:35.573Z,465
2017-08-21T08:29:44.786Z,475
2017-08-21T08:30:55.112Z,475
2017-08-21T08:32:04.980Z,465
2017-08-21T08:33:15.157Z,465
2017-08-21T08:34:24.703Z,470
2017-08-21T08:35:33.912Z,455
2017-08-21T08:36:43.245Z,450
2017-08-21T08:37:52.132Z,450
2017-08-21T08:39:01.987Z,450
2017-08-21T08:40:11.208Z,455
2017-08-21T08:41:20.747Z,445
2017-08-21T08:42:30.707Z,435
2017-08-21T08:43:39.913Z,420
2017-08-21T08:44:49.441Z,395
2017-08-21T08:45:58.649Z,360
2017-08-21T08:47:08.509Z,325
2017-08-21T08:48:18.690Z,300
2017-08-21T08:49:28.225Z,290
2017-08-21T08:50:38.423Z,270
2017-08-21T08:51:47.966Z,265
2017-08-21T08:52:57.177Z,285
2017-08-21T08:54:07.191Z,295
2017-08-21T08:55:16.720Z,305
2017-08-21T08:56:26.252Z,305
2017-08-21T08:57:36.437Z,305
2017-08-21T08:58:45.642Z,320
2017-08-21T08:59:55.223Z,325
2017-08-21T09:01:04.771Z,330
2017-08-21T09:02:14.955Z,340
2017-08-21T09:03:24.812Z,370
2017-08-21T09:04:34.347Z,460
2017-08-21T09:05:44.032Z,465
2017-08-21T09:06:53.887Z,500
2017-08-21T09:08:03.115Z,495
2017-08-21T09:09:12.645Z,505
2017-08-21T09:10:22.502Z,455
2017-08-21T09:11:32.661Z,450
2017-08-21T09:12:42.842Z,470
2017-08-21T09:13:52.700Z,510
2017-08-21T09:15:02.232Z,540
2017-08-21T09:16:11.768Z,570
2017-08-21T09:17:20.978Z,540
2017-08-21T09:18:30.512Z,480
2017-08-21T09:19:40.368Z,390
2017-08-21T09:20:50.227Z,360
2017-08-21T09:21:59.462Z,270
2017-08-21T09:23:09.329Z,250
2017-08-21T09:24:19.203Z,220
2017-08-21T09:25:28.413Z,165
2017-08-21T09:26:37.628Z,190
2017-08-21T09:27:47.193Z,305
2017-08-21T09:28:56.827Z,410
2017-08-21T09:30:06.696Z,530
2017-08-21T09:31:16.230Z,545
2017-08-21T09:32:25.439Z,520
2017-08-21T09:33:34.975Z,505
2017-08-21T09:34:45.465Z,475
2017-08-21T09:35:55.330Z,485
2017-08-21T09:37:04.863Z,500
2017-08-21T09:38:14.401Z,480
2017-08-21T09:39:24.259Z,450
2017-08-21T09:40:33.637Z,425
2017-08-21T09:41:42.845Z,395
2017-08-21T09:42:52.054Z,390
2017-08-21T09:44:01.917Z,430
2017-08-21T09:45:10.808Z,460
2017-08-21T09:46:20.068Z,460
2017-08-21T09:47:29.928Z,495
2017-08-21T09:48:39.462Z,590
2017-08-21T09:49:48.999Z,555
2017-08-21T09:50:58.207Z,565
2017-08-21T09:52:07.464Z,590
2017-08-21T09:53:16.676Z,540
2017-08-21T09:54:25.560Z,395
2017-08-21T09:55:34.777Z,335
2017-08-21T09:56:43.663Z,365
2017-08-21T09:57:53.347Z,410
2017-08-21T09:59:02.556Z,445
2017-08-21T10:00:11.441Z,480
2017-08-21T10:01:20.978Z,470
2017-08-21T10:02:30.186Z,485
2017-08-21T10:03:40.444Z,500
2017-08-21T10:04:49.993Z,415
2017-08-21T10:05:59.206Z,390
2017-08-21T10:07:08.418Z,445
2017-08-21T10:08:18.277Z,430
2017-08-21T10:09:27.311Z,460
2017-08-21T10:10:36.846Z,505
2017-08-21T10:11:46.377Z,520
2017-08-21T10:12:56.237Z,530
2017-08-21T10:14:05.126Z,495
2017-08-21T10:15:14.639Z,530
2017-08-21T10:16:23.847Z,485
2017-08-21T10:17:32.739Z,460
2017-08-21T10:18:41.949Z,380
2017-08-21T10:19:51.812Z,400
2017-08-21T10:21:01.127Z,405
2017-08-21T10:22:10.987Z,470
2017-08-21T10:23:20.848Z,450
2017-08-21T10:24:30.060Z,505
2017-08-21T10:25:40.239Z,440
2017-08-21T10:26:50.670Z,385
2017-08-21T10:28:00.526Z,380
2017-08-21T10:29:10.055Z,385
2017-08-21T10:30:19.586Z,385
2017-08-21T10:31:29.124Z,395
2017-08-21T10:32:39.089Z,410
2017-08-21T10:33:48.299Z,440
2017-08-21T10:34:57.829Z,500
2017-08-21T10:36:07.047Z,505
2017-08-21T10:37:16.260Z,445
2017-08-21T10:38:25.570Z,470
2017-08-21T10:39:34.781Z,475
2017-08-21T10:40:44.007Z,505
2017-08-21T10:41:53.229Z,560
2017-08-21T10:43:02.441Z,570
2017-08-21T10:44:11.974Z,625
2017-08-21T10:45:21.508Z,660
2017-08-21T10:46:30.724Z,545
2017-08-21T10:47:40.904Z,360
2017-08-21T10:48:50.438Z,190
2017-08-21T10:49:59.982Z,145
2017-08-21T10:51:09.518Z,145
2017-08-21T10:52:19.055Z,160
2017-08-21T10:53:28.592Z,200
2017-08-21T10:54:38.782Z,215
2017-08-21T10:55:48.293Z,215
2017-08-21T10:56:57.832Z,210
2017-08-21T10:58:07.364Z,210
2017-08-21T10:59:16.569Z,210
2017-08-21T11:00:26.429Z,230
2017-08-21T11:01:36.117Z,250
2017-08-21T11:02:46.628Z,260
2017-08-21T11:03:56.180Z,285
2017-08-21T11:05:05.714Z,320
2017-08-21T11:06:15.248Z,365
2017-08-21T11:07:24.788Z,400
2017-08-21T11:08:34.645Z,415
2017-08-21T11:09:44.500Z,460
2017-08-21T11:10:53.712Z,505
2017-08-21T11:12:03.572Z,550
2017-08-21T11:13:13.804Z,620
2017-08-21T11:14:23.339Z,705
2017-08-21T11:15:32.876Z,790
2017-08-21T11:16:42.089Z,805
2017-08-21T11:17:51.396Z,815
2017-08-21T11:19:00.283Z,780
2017-08-21T11:20:09.831Z,755
2017-08-21T11:21:19.041Z,765
2017-08-21T11:22:28.578Z,775
2017-08-21T11:23:37.800Z,770
2017-08-21T11:24:47.641Z,775
2017-08-21T11:25:56.531Z,760
2017-08-21T11:27:06.061Z,740
2017-08-21T11:28:15.919Z,760
2017-08-21T11:29:25.131Z,770
2017-08-21T11:30:34.899Z,765
2017-08-21T11:31:44.133Z,785
2017-08-21T11:32:53.020Z,765
2017-08-21T11:34:02.562Z,745
2017-08-21T11:35:12.425Z,760
2017-08-21T11:36:22.108Z,785
2017-08-21T11:37:31.640Z,750
2017-08-21T11:38:40.531Z,735
2017-08-21T11:39:49.742Z,660
2017-08-21T11:40:59.918Z,605
2017-08-21T11:42:09.781Z,580
2017-08-21T11:43:18.996Z,595
2017-08-21T11:44:28.531Z,625
2017-08-21T11:45:37.744Z,660
2017-08-21T11:46:46.954Z,690
2017-08-21T11:47:56.215Z,725
2017-08-21T11:49:05.749Z,765
2017-08-21T11:50:15.289Z,795
2017-08-21T11:51:25.170Z,785
2017-08-21T11:52:35.029Z,770
2017-08-21T11:53:44.934Z,755
2017-08-21T11:54:54.486Z,685
2017-08-21T11:56:04.375Z,620
2017-08-21T11:57:13.916Z,455
2017-08-21T11:58:23.137Z,305
2017-08-21T11:59:32.682Z,250
2017-08-21T12:00:41.908Z,260
2017-08-21T12:01:51.457Z,320
2017-08-21T12:03:00.991Z,375
2017-08-21T12:04:10.863Z,390
2017-08-21T12:05:20.374Z,425
2017-08-21T12:06:29.905Z,415
2017-08-21T12:07:39.762Z,415
2017-08-21T12:08:49.297Z,425
2017-08-21T12:09:59.203Z,420
2017-08-21T12:11:09.533Z,435
2017-08-21T12:12:19.726Z,450
2017-08-21T12:13:29.593Z,480
2017-08-21T12:14:39.467Z,485
2017-08-21T12:15:48.676Z,480
2017-08-21T12:16:57.716Z,480
2017-08-21T12:18:07.893Z,480
2017-08-21T12:19:17.799Z,475
2017-08-21T12:20:27.661Z,465
2017-08-21T12:21:37.204Z,465
2017-08-21T12:22:47.069Z,490
2017-08-21T12:23:56.656Z,515
2017-08-21T12:25:06.188Z,540
2017-08-21T12:26:15.728Z,555
2017-08-21T12:27:25.254Z,580
2017-08-21T12:28:35.038Z,625
2017-08-21T12:29:44.247Z,700
2017-08-21T12:30:54.101Z,790
2017-08-21T12:32:03.642Z,820
2017-08-21T12:33:12.526Z,810
2017-08-21T12:34:22.381Z,740
2017-08-21T12:35:31.914Z,740
2017-08-21T12:36:41.130Z,740
2017-08-21T12:37:51.004Z,780
2017-08-21T12:39:00.220Z,875
2017-08-21T12:40:09.140Z,935
2017-08-21T12:41:18.683Z,985
2017-08-21T12:42:28.550Z,835
2017-08-21T12:43:38.406Z,750
2017-08-21T12:44:47.293Z,785
2017-08-21T12:45:56.998Z,885
2017-08-21T12:47:06.570Z,1075
2017-08-21T12:48:16.470Z,820
2017-08-21T12:49:25.688Z,825
2017-08-21T12:50:34.896Z,890
2017-08-21T12:51:45.059Z,935
2017-08-21T12:52:54.275Z,960
2017-08-21T12:54:03.491Z,1000
2017-08-21T12:55:13.022Z,940
2017-08-21T12:56:22.230Z,940
2017-08-21T12:57:31.768Z,990
2017-08-21T12:58:41.305Z,1015
2017-08-21T12:59:50.851Z,925
2017-08-21T13:00:59.739Z,830
2017-08-21T13:02:08.970Z,825
2017-08-21T13:03:19.247Z,875
2017-08-21T13:04:28.459Z,945
2017-08-21T13:05:38.033Z,995
2017-08-21T13:06:47.566Z,1145
2017-08-21T13:07:56.781Z,1075
2017-08-21T13:09:06.687Z,1070
2017-08-21T13:10:16.227Z,1545
2017-08-21T13:11:25.771Z,675
2017-08-21T13:12:35.309Z,575
2017-08-21T13:13:44.870Z,490
2017-08-21T13:14:54.561Z,430
2017-08-21T13:16:04.101Z,395
2017-08-21T13:17:13.962Z,345
2017-08-21T13:18:23.183Z,285
2017-08-21T13:19:32.722Z,230
2017-08-21T13:20:42.661Z,180
2017-08-21T13:21:51.552Z,165
2017-08-21T13:23:01.413Z,165
2017-08-21T13:24:10.951Z,180
2017-08-21T13:25:20.826Z,210
2017-08-21T13:26:31.275Z,285
2017-08-21T13:27:40.488Z,345
2017-08-21T13:28:49.697Z,370
2017-08-21T13:29:58.593Z,415
2017-08-21T13:31:08.129Z,510
2017-08-21T13:32:17.789Z,595
2017-08-21T13:33:27.002Z,670
2017-08-21T13:34:36.211Z,745
2017-08-21T13:35:46.069Z,775
2017-08-21T13:36:55.605Z,820
2017-08-21T13:38:05.402Z,865
2017-08-21T13:39:15.599Z,890
2017-08-21T13:40:25.457Z,945
2017-08-21T13:41:34.672Z,1000
2017-08-21T13:42:44.541Z,990
2017-08-21T13:43:53.425Z,1065
2017-08-21T13:45:02.640Z,1150
2017-08-21T13:46:12.966Z,1565
2017-08-21T13:47:23.150Z,2060
2017-08-21T13:48:32.045Z,2215
2017-08-21T13:49:41.679Z,2740
2017-08-21T13:50:51.209Z,525
2017-08-21T13:52:00.419Z,455
2017-08-21T13:53:10.606Z,460
2017-08-21T13:54:20.464Z,405
2017-08-21T13:55:30.102Z,375
2017-08-21T13:56:39.317Z,335
2017-08-21T13:57:48.534Z,260
2017-08-21T13:58:58.076Z,190
2017-08-21T14:00:08.270Z,185
2017-08-21T14:01:18.284Z,170
2017-08-21T14:02:27.498Z,175
2017-08-21T14:03:37.355Z,205
2017-08-21T14:04:46.898Z,230
2017-08-21T14:05:56.433Z,225
2017-08-21T14:07:06.297Z,225
2017-08-21T14:08:16.478Z,245
2017-08-21T14:09:26.345Z,290
2017-08-21T14:10:35.566Z,335
2017-08-21T14:11:44.460Z,380
2017-08-21T14:12:53.652Z,380
2017-08-21T14:14:03.221Z,385
2017-08-21T14:15:12.762Z,415
2017-08-21T14:16:22.657Z,440
2017-08-21T14:17:31.923Z,415
2017-08-21T14:18:41.540Z,455
2017-08-21T14:19:50.762Z,465
2017-08-21T14:21:00.295Z,415
2017-08-21T14:22:09.832Z,405
2017-08-21T14:23:19.066Z,450
2017-08-21T14:24:28.378Z,455
2017-08-21T14:25:37.272Z,390
2017-08-21T14:26:46.491Z,340
2017-08-21T14:27:56.676Z,305
2017-08-21T14:29:06.216Z,260
2017-08-21T14:30:15.578Z,240
2017-08-21T14:31:25.121Z,250
2017-08-21T14:32:34.331Z,295
2017-08-21T14:33:44.189Z,330
2017-08-21T14:34:53.077Z,395
2017-08-21T14:36:02.661Z,455
2017-08-21T14:37:12.527Z,405
2017-08-21T14:38:22.080Z,330
2017-08-21T14:39:30.999Z,280
2017-08-21T14:40:40.217Z,205
2017-08-21T14:41:49.487Z,140
2017-08-21T14:42:59.033Z,130
2017-08-21T14:44:08.575Z,105
2017-08-21T14:45:17.458Z,70
2017-08-21T14:46:26.346Z,70
2017-08-21T14:47:35.340Z,75
2017-08-21T14:48:45.433Z,85
2017-08-21T14:49:55.021Z,110
2017-08-21T14:51:04.572Z,135
2017-08-21T14:52:13.788Z,190
2017-08-21T14:53:23.325Z,255
2017-08-21T14:54:32.867Z,325
2017-08-21T14:55:42.409Z,355
2017-08-21T14:56:51.971Z,395
2017-08-21T14:58:00.858Z,450
2017-08-21T14:59:10.067Z,480
2017-08-21T15:00:19.308Z,500
2017-08-21T15:01:29.494Z,510
2017-08-21T15:02:39.029Z,495
2017-08-21T15:03:49.229Z,435
2017-08-21T15:04:58.440Z,390
2017-08-21T15:06:08.338Z,350
2017-08-21T15:07:17.605Z,285
2017-08-21T15:08:26.609Z,265
2017-08-21T15:09:36.034Z,280
2017-08-21T15:10:45.645Z,305
2017-08-21T15:11:55.266Z,360
2017-08-21T15:13:04.839Z,415
2017-08-21T15:14:14.851Z,425
2017-08-21T15:15:24.393Z,415
2017-08-21T15:16:33.282Z,420
2017-08-21T15:17:42.495Z,435
2017-08-21T15:18:52.333Z,480
2017-08-21T15:20:01.549Z,520
2017-08-21T15:21:10.436Z,510
2017-08-21T15:22:20.291Z,515
2017-08-21T15:23:29.184Z,520
2017-08-21T15:24:39.108Z,515
2017-08-21T15:25:48.649Z,505
2017-08-21T15:26:57.866Z,495
2017-08-21T15:28:07.405Z,490
2017-08-21T15:29:17.260Z,505
2017-08-21T15:30:27.887Z,565
2017-08-21T15:31:37.099Z,595
2017-08-21T15:32:46.313Z,670
2017-08-21T15:33:55.557Z,1605
2017-08-21T15:35:05.092Z,850
2017-08-21T15:36:14.629Z,625
2017-08-21T15:37:24.485Z,860
2017-08-21T15:38:33.377Z,1500
2017-08-21T15:39:42.606Z,695
2017-08-21T15:40:51.889Z,1320
2017-08-21T15:42:01.141Z,1535
2017-08-21T15:43:10.677Z,1095
2017-08-21T15:44:20.593Z,645
2017-08-21T15:45:30.146Z,1085
2017-08-21T15:46:40.022Z,1610
2017-08-21T15:47:49.615Z,1690
2017-08-21T15:48:58.830Z,1275
2017-08-21T15:50:08.379Z,1270
2017-08-21T15:51:17.599Z,1570
2017-08-21T15:52:27.461Z,1530
2017-08-21T15:53:36.725Z,1405
2017-08-21T15:54:46.594Z,1385
2017-08-21T15:55:55.813Z,875
2017-08-21T15:57:05.034Z,690
2017-08-21T15:58:14.581Z,1465
2017-08-21T15:59:24.276Z,1495
2017-08-21T16:00:33.494Z,1250
2017-08-21T16:01:43.049Z,1440
2017-08-21T16:02:52.591Z,1340
2017-08-21T16:04:02.465Z,605
2017-08-21T16:05:12.014Z,865
2017-08-21T16:06:21.881Z,420
2017-08-21T16:07:31.102Z,330
2017-08-21T16:08:40.962Z,280
2017-08-21T16:09:50.830Z,240
2017-08-21T16:11:00.377Z,255
2017-08-21T16:12:10.250Z,310
2017-08-21T16:13:20.121Z,300
2017-08-21T16:14:30.102Z,395
2017-08-21T16:15:39.963Z,935